Alpena County Regional Airport
KAPN : now visible

Airfield :











YOU CAN JOIN US ON...

 
LOGIN :

Register | Disclaimer

   EN    FR    IT 

 









Legend :    VFR   Marginal VFR   IFR   Intensive IFR   Very Intensive IFR
Visi :
Ceiling :
>= 8 km
>= 3000ft
5 to 8 km
1000 to 3000 ft
1500m to 5 km
500 to 1000 ft
800 to 1500m
200 to 500 ft
< 800m
< 200 ft
Symbols :   Thunderstorms  Fog  Heavy snow  Heavy precipitations  Wind > 20 kt






- Airport Elevation : 690 ft
- IATA code : APN


KAPN - Alpena County Regional

CURRENT METAR :
  • 260037Z AUTO 35007KT 10SM -TSRA FEW055 BKN090 OVC110 19/17 A2999 RMK AO2 LTG DSNT N AND NW RAB15 TSB31 P0000 T01890167 $

EXPIRED METARs :
  • 252354Z AUTO 08003KT 10SM VCTS CLR 18/14 A2997 RMK AO2 LTG DSNT SW AND W RAB2256E17 SLP148 P0000 60000 T01830144 10239 20183 56001 $
  • 252254Z AUTO 00000KT 10SM FEW070 FEW095 SCT120 20/14 A2997 RMK AO2 LTG DSNT N SLP148 T02000144 $
  • 252223Z AUTO 12006KT 10SM CLR 19/14 A2995 RMK AO2 LTG DSNT W AND NW T01940139 $
  • 252208Z AUTO 12008KT 10SM VCTS CLR 20/14 A2995 RMK AO2 LTG DSNT W AND NW T02000144 $
  • 252154Z AUTO 13008KT 10SM CLR 19/14 A2996 RMK AO2 LTG DSNT NW SLP145 T01940144 $

TAF KAPN
Valid from the 26 at 00:00 until the 27 at 00:00 UTC


260010Z 2600/2624 14005KT P6SM VCTS BKN050CB
TEMPO 2600/2602 3SM -TSRA BR OVC030CB
FM260200 VRB04KT P6SM BKN180
FM260500 00000KT 2SM BR SCT004
FM261200 00000KT P6SM SCT200
FM261700 17006KT P6SM SCT050
FM262200 14005KT P6SM VCSH SCT060
KZMP FIR / North America



MET'MAP, your aeronautical weather chart ! - Copyright ORBIFLY December 2007 - Disclaimer

ORBIFLY MET'MAP TEAM :

Programming & Development : Alexandra Zaïnal
Concept & original design : Baudouin d'Aumeries
Assistance for programming : Marc-Olivier Méhu
Technical & hardware support : Manuel Goepfert

Contact : metmap@orbifly.com




SOURCES & CREDITS :

   NOAA       Earth
Advisory